sensor_id;sensor_type;location;lat;lon;timestamp;pressure;altitude;pressure_sealevel;temperature;humidity
63343;BME280;49465;57.664;39.686;2024-02-28T00:00:58;101392.97;;;1.77;40.66
63343;BME280;49465;57.664;39.686;2024-02-28T00:03:32;101401.66;;;1.70;40.78
63343;BME280;49465;57.664;39.686;2024-02-28T00:06:11;101407.66;;;1.74;40.83
63343;BME280;49465;57.664;39.686;2024-02-28T00:08:44;101412.84;;;1.74;40.95
63343;BME280;49465;57.664;39.686;2024-02-28T00:11:17;101418.03;;;1.72;41.03
63343;BME280;49465;57.664;39.686;2024-02-28T00:13:57;101406.88;;;1.67;40.89
63343;BME280;49465;57.664;39.686;2024-02-28T00:16:39;101411.09;;;1.76;40.82
63343;BME280;49465;57.664;39.686;2024-02-28T00:19:15;101406.06;;;1.64;40.79
63343;BME280;49465;57.664;39.686;2024-02-28T00:21:56;101402.56;;;1.68;40.76
63343;BME280;49465;57.664;39.686;2024-02-28T00:24:33;101403.69;;;1.39;40.81
63343;BME280;49465;57.664;39.686;2024-02-28T00:27:16;101409.41;;;1.75;41.05
63343;BME280;49465;57.664;39.686;2024-02-28T00:29:56;101406.19;;;1.51;40.80
63343;BME280;49465;57.664;39.686;2024-02-28T00:32:26;101393.44;;;1.28;40.92
63343;BME280;49465;57.664;39.686;2024-02-28T00:35:01;101395.19;;;1.28;40.76
63343;BME280;49465;57.664;39.686;2024-02-28T00:37:31;101391.63;;;1.38;40.72
63343;BME280;49465;57.664;39.686;2024-02-28T00:40:07;101394.25;;;1.35;40.49
63343;BME280;49465;57.664;39.686;2024-02-28T00:42:44;101397.72;;;1.34;40.66
63343;BME280;49465;57.664;39.686;2024-02-28T00:45:14;101392.56;;;1.31;40.51
63343;BME280;49465;57.664;39.686;2024-02-28T00:47:48;101386.59;;;1.26;40.70
63343;BME280;49465;57.664;39.686;2024-02-28T00:50:19;101381.50;;;1.15;40.93
63343;BME280;49465;57.664;39.686;2024-02-28T00:52:51;101382.28;;;1.23;40.71
63343;BME280;49465;57.664;39.686;2024-02-28T00:55:24;101381.41;;;1.24;40.53
63343;BME280;49465;57.664;39.686;2024-02-28T00:57:56;101379.69;;;1.23;40.57
63343;BME280;49465;57.664;39.686;2024-02-28T01:00:30;101378.91;;;1.18;40.65
63343;BME280;49465;57.664;39.686;2024-02-28T01:03:07;101379.75;;;1.17;40.93
63343;BME280;49465;57.664;39.686;2024-02-28T01:05:44;101373.56;;;2.18;39.88
63343;BME280;49465;57.664;39.686;2024-02-28T01:08:18;101363.28;;;1.29;40.71
63343;BME280;49465;57.664;39.686;2024-02-28T01:10:53;101375.47;;;1.13;41.21
63343;BME280;49465;57.664;39.686;2024-02-28T01:13:24;101372.91;;;1.13;41.00
63343;BME280;49465;57.664;39.686;2024-02-28T01:16:04;101365.25;;;1.01;41.13
63343;BME280;49465;57.664;39.686;2024-02-28T01:18:41;101371.28;;;1.01;41.32
63343;BME280;49465;57.664;39.686;2024-02-28T01:21:14;101368.69;;;0.99;41.36
63343;BME280;49465;57.664;39.686;2024-02-28T01:23:49;101359.25;;;0.97;41.33
63343;BME280;49465;57.664;39.686;2024-02-28T01:26:21;101349.06;;;0.78;41.23
63343;BME280;49465;57.664;39.686;2024-02-28T01:28:51;101342.13;;;0.88;41.22
63343;BME280;49465;57.664;39.686;2024-02-28T01:31:28;101339.66;;;0.68;41.28
63343;BME280;49465;57.664;39.686;2024-02-28T01:33:57;101346.44;;;0.85;41.12
63343;BME280;49465;57.664;39.686;2024-02-28T01:36:35;101337.97;;;0.64;41.25
63343;BME280;49465;57.664;39.686;2024-02-28T01:39:06;101347.34;;;0.76;41.17
63343;BME280;49465;57.664;39.686;2024-02-28T01:41:40;101344.75;;;0.77;41.01
63343;BME280;49465;57.664;39.686;2024-02-28T01:44:09;101343.16;;;0.58;41.21
63343;BME280;49465;57.664;39.686;2024-02-28T01:46:38;101336.31;;;0.52;41.53
63343;BME280;49465;57.664;39.686;2024-02-28T01:49:11;101351.75;;;0.63;41.48
63343;BME280;49465;57.664;39.686;2024-02-28T01:51:44;101337.25;;;0.44;41.27
63343;BME280;49465;57.664;39.686;2024-02-28T01:54:21;101327.66;;;0.61;41.21
63343;BME280;49465;57.664;39.686;2024-02-28T01:56:56;101323.41;;;0.57;41.63
63343;BME280;49465;57.664;39.686;2024-02-28T01:59:31;101320.81;;;0.57;41.50
63343;BME280;49465;57.664;39.686;2024-02-28T02:02:02;101312.28;;;0.44;41.51
63343;BME280;49465;57.664;39.686;2024-02-28T02:04:32;101316.63;;;0.37;41.32
63343;BME280;49465;57.664;39.686;2024-02-28T02:07:04;101310.53;;;0.48;41.63
63343;BME280;49465;57.664;39.686;2024-02-28T02:09:36;101308.84;;;0.44;41.80
63343;BME280;49465;57.664;39.686;2024-02-28T02:12:13;101309.69;;;0.47;41.78
63343;BME280;49465;57.664;39.686;2024-02-28T02:14:51;101301.81;;;0.64;41.29
63343;BME280;49465;57.664;39.686;2024-02-28T02:17:26;101300.28;;;0.38;41.78
63343;BME280;49465;57.664;39.686;2024-02-28T02:20:01;101289.16;;;0.32;41.54
63343;BME280;49465;57.664;39.686;2024-02-28T02:22:38;101295.91;;;0.48;41.60
63343;BME280;49465;57.664;39.686;2024-02-28T02:25:13;101292.63;;;1.33;40.21
63343;BME280;49465;57.664;39.686;2024-02-28T02:27:51;101295.81;;;0.65;41.12
63343;BME280;49465;57.664;39.686;2024-02-28T02:30:23;101290.00;;;0.31;41.67
63343;BME280;49465;57.664;39.686;2024-02-28T02:32:52;101287.53;;;0.14;41.98
63343;BME280;49465;57.664;39.686;2024-02-28T02:35:35;101297.72;;;0.32;41.64
63343;BME280;49465;57.664;39.686;2024-02-28T02:38:08;101299.59;;;0.12;41.80
63343;BME280;49465;57.664;39.686;2024-02-28T02:40:39;101299.50;;;0.23;41.98
63343;BME280;49465;57.664;39.686;2024-02-28T02:43:08;101294.41;;;1.28;40.82
63343;BME280;49465;57.664;39.686;2024-02-28T02:45:41;101295.13;;;1.42;39.81
63343;BME280;49465;57.664;39.686;2024-02-28T02:48:15;101294.22;;;1.46;39.83
63343;BME280;49465;57.664;39.686;2024-02-28T02:50:46;101290.94;;;0.22;41.32
63343;BME280;49465;57.664;39.686;2024-02-28T02:53:17;101291.81;;;0.16;41.79
63343;BME280;49465;57.664;39.686;2024-02-28T02:55:51;101291.78;;;0.23;41.86
63343;BME280;49465;57.664;39.686;2024-02-28T02:58:25;101284.06;;;0.15;42.07
63343;BME280;49465;57.664;39.686;2024-02-28T03:01:05;101284.09;;;0.09;42.01
63343;BME280;49465;57.664;39.686;2024-02-28T03:03:40;101282.41;;;0.05;41.92
63343;BME280;49465;57.664;39.686;2024-02-28T03:06:11;101287.69;;;1.10;40.97
63343;BME280;49465;57.664;39.686;2024-02-28T03:08:43;101295.28;;;0.08;41.91
63343;BME280;49465;57.664;39.686;2024-02-28T03:11:09;101290.19;;;-0.02;42.43
63343;BME280;49465;57.664;39.686;2024-02-28T03:13:44;101297.00;;;0.12;42.26
63343;BME280;49465;57.664;39.686;2024-02-28T03:16:18;101295.28;;;0.11;42.31
63343;BME280;49465;57.664;39.686;2024-02-28T03:18:54;101291.13;;;1.10;41.35
63343;BME280;49465;57.664;39.686;2024-02-28T03:21:28;101282.28;;;0.26;41.93
63343;BME280;49465;57.664;39.686;2024-02-28T03:24:04;101285.81;;;0.10;42.19
63343;BME280;49465;57.664;39.686;2024-02-28T03:26:36;101280.69;;;0.07;42.39
63343;BME280;49465;57.664;39.686;2024-02-28T03:29:07;101292.03;;;1.06;40.91
63343;BME280;49465;57.664;39.686;2024-02-28T03:31:36;101287.50;;;1.30;40.79
63343;BME280;49465;57.664;39.686;2024-02-28T03:34:08;101284.09;;;0.10;41.72
63343;BME280;49465;57.664;39.686;2024-02-28T03:36:38;101289.34;;;-0.05;42.11
63343;BME280;49465;57.664;39.686;2024-02-28T03:39:12;101293.59;;;0.04;42.21
63343;BME280;49465;57.664;39.686;2024-02-28T03:41:46;101293.78;;;1.04;40.96
63343;BME280;49465;57.664;39.686;2024-02-28T03:44:15;101285.81;;;0.14;42.00
63343;BME280;49465;57.664;39.686;2024-02-28T03:46:47;101279.88;;;0.00;42.11
63343;BME280;49465;57.664;39.686;2024-02-28T03:49:21;101271.28;;;-0.08;42.08
63343;BME280;49465;57.664;39.686;2024-02-28T03:51:58;101264.47;;;-0.17;42.39
63343;BME280;49465;57.664;39.686;2024-02-28T03:54:27;101271.38;;;-0.28;42.34
63343;BME280;49465;57.664;39.686;2024-02-28T03:56:56;101270.53;;;-0.32;42.34
63343;BME280;49465;57.664;39.686;2024-02-28T03:59:28;101259.38;;;-0.35;42.69
63343;BME280;49465;57.664;39.686;2024-02-28T04:02:05;101270.50;;;-0.26;42.77
63343;BME280;49465;57.664;39.686;2024-02-28T04:04:39;101277.38;;;-0.23;42.77
63343;BME280;49465;57.664;39.686;2024-02-28T04:07:14;101273.09;;;-0.24;42.46
63343;BME280;49465;57.664;39.686;2024-02-28T04:09:53;101278.47;;;0.83;41.29
63343;BME280;49465;57.664;39.686;2024-02-28T04:12:25;101282.53;;;-0.25;41.87
63343;BME280;49465;57.664;39.686;2024-02-28T04:14:57;101285.97;;;-0.19;42.63
63343;BME280;49465;57.664;39.686;2024-02-28T04:17:28;101292.84;;;-0.28;42.79
63343;BME280;49465;57.664;39.686;2024-02-28T04:19:59;101305.13;;;0.83;41.57
63343;BME280;49465;57.664;39.686;2024-02-28T04:22:35;101309.13;;;-0.09;42.16
63343;BME280;49465;57.664;39.686;2024-02-28T04:25:07;101298.84;;;-0.26;42.39
63343;BME280;49465;57.664;39.686;2024-02-28T04:27:44;101301.47;;;-0.30;42.64
63343;BME280;49465;57.664;39.686;2024-02-28T04:30:23;101296.22;;;-0.10;42.59
63343;BME280;49465;57.664;39.686;2024-02-28T04:32:54;101285.44;;;0.70;41.04
63343;BME280;49465;57.664;39.686;2024-02-28T04:35:23;101290.47;;;0.87;40.69
63343;BME280;49465;57.664;39.686;2024-02-28T04:37:58;101291.25;;;0.95;40.66
63343;BME280;49465;57.664;39.686;2024-02-28T04:40:33;101288.69;;;0.95;40.54
63343;BME280;49465;57.664;39.686;2024-02-28T04:43:06;101286.78;;;-0.16;42.13
63343;BME280;49465;57.664;39.686;2024-02-28T04:45:38;101285.16;;;-0.32;42.61
63343;BME280;49465;57.664;39.686;2024-02-28T04:48:07;101273.22;;;-0.56;42.47
63343;BME280;49465;57.664;39.686;2024-02-28T04:50:42;101271.44;;;-0.44;42.78
63343;BME280;49465;57.664;39.686;2024-02-28T04:53:21;101275.25;;;0.51;41.55
63343;BME280;49465;57.664;39.686;2024-02-28T04:55:56;101282.59;;;-0.38;42.44
63343;BME280;49465;57.664;39.686;2024-02-28T04:58:31;101269.78;;;-0.60;42.66
63343;BME280;49465;57.664;39.686;2024-02-28T05:01:02;101263.78;;;-0.64;42.91
63343;BME280;49465;57.664;39.686;2024-02-28T05:03:34;101264.56;;;-0.49;43.07
63343;BME280;49465;57.664;39.686;2024-02-28T05:06:08;101274.03;;;-0.47;42.89
63343;BME280;49465;57.664;39.686;2024-02-28T05:08:42;101272.31;;;-0.48;42.65
63343;BME280;49465;57.664;39.686;2024-02-28T05:11:12;101266.31;;;-0.51;42.47
63343;BME280;49465;57.664;39.686;2024-02-28T05:13:52;101277.47;;;-0.49;42.84
63343;BME280;49465;57.664;39.686;2024-02-28T05:16:26;101284.69;;;0.57;41.55
63343;BME280;49465;57.664;39.686;2024-02-28T05:19:01;101285.38;;;0.79;41.16
63343;BME280;49465;57.664;39.686;2024-02-28T05:21:40;101285.19;;;-0.38;42.61
63343;BME280;49465;57.664;39.686;2024-02-28T05:24:09;101284.34;;;-0.51;42.70
63343;BME280;49465;57.664;39.686;2024-02-28T05:26:44;101277.47;;;-0.43;43.04
63343;BME280;49465;57.664;39.686;2024-02-28T05:29:13;101275.22;;;0.57;41.76
63343;BME280;49465;57.664;39.686;2024-02-28T05:31:50;101282.53;;;-0.26;42.75
63343;BME280;49465;57.664;39.686;2024-02-28T05:34:19;101276.78;;;0.74;41.73
63343;BME280;49465;57.664;39.686;2024-02-28T05:36:48;101279.25;;;0.89;41.41
63343;BME280;49465;57.664;39.686;2024-02-28T05:39:17;101284.34;;;0.95;41.14
63343;BME280;49465;57.664;39.686;2024-02-28T05:41:49;101281.75;;;0.98;41.32
63343;BME280;49465;57.664;39.686;2024-02-28T05:44:21;101280.94;;;0.92;41.59
63343;BME280;49465;57.664;39.686;2024-02-28T05:46:53;101278.16;;;-0.03;43.25
63343;BME280;49465;57.664;39.686;2024-02-28T05:49:41;101279.00;;;0.01;43.44
63343;BME280;49465;57.664;39.686;2024-02-28T05:52:13;101275.81;;;0.89;42.24
63343;BME280;49465;57.664;39.686;2024-02-28T05:54:47;101272.16;;;1.11;41.67
63343;BME280;49465;57.664;39.686;2024-02-28T05:57:19;101271.97;;;0.25;43.86
63343;BME280;49465;57.664;39.686;2024-02-28T05:59:51;101267.78;;;0.07;43.87
63343;BME280;49465;57.664;39.686;2024-02-28T06:02:23;101264.44;;;-0.14;44.37
63343;BME280;49465;57.664;39.686;2024-02-28T06:04:55;101266.94;;;0.06;44.99
63343;BME280;49465;57.664;39.686;2024-02-28T06:07:27;101278.94;;;0.07;44.71
63343;BME280;49465;57.664;39.686;2024-02-28T06:09:58;101273.75;;;0.16;44.28
63343;BME280;49465;57.664;39.686;2024-02-28T06:12:35;101275.41;;;0.28;44.06
63343;BME280;49465;57.664;39.686;2024-02-28T06:15:13;101275.25;;;0.50;44.26
63343;BME280;49465;57.664;39.686;2024-02-28T06:17:47;101273.66;;;0.29;44.67
63343;BME280;49465;57.664;39.686;2024-02-28T06:20:13;101278.03;;;0.22;44.20
63343;BME280;49465;57.664;39.686;2024-02-28T06:22:45;101265.88;;;0.36;44.80
63343;BME280;49465;57.664;39.686;2024-02-28T06:25:17;101266.69;;;0.43;44.75
63343;BME280;49465;57.664;39.686;2024-02-28T06:27:55;101276.97;;;0.51;44.34
63343;BME280;49465;57.664;39.686;2024-02-28T06:30:31;101270.94;;;1.46;43.23
63343;BME280;49465;57.664;39.686;2024-02-28T06:33:06;101274.88;;;1.80;42.79
63343;BME280;49465;57.664;39.686;2024-02-28T06:35:45;101271.44;;;0.94;44.28
63343;BME280;49465;57.664;39.686;2024-02-28T06:38:23;101266.41;;;0.82;44.64
63343;BME280;49465;57.664;39.686;2024-02-28T06:40:55;101271.69;;;0.68;44.76
63343;BME280;49465;57.664;39.686;2024-02-28T06:43:33;101258.69;;;1.64;43.60
63343;BME280;49465;57.664;39.686;2024-02-28T06:46:13;101251.63;;;0.97;44.49
63343;BME280;49465;57.664;39.686;2024-02-28T06:48:44;101261.34;;;0.68;45.10
63343;BME280;49465;57.664;39.686;2024-02-28T06:51:24;101250.97;;;0.78;45.62
63343;BME280;49465;57.664;39.686;2024-02-28T06:54:05;101254.41;;;0.76;45.09
63343;BME280;49465;57.664;39.686;2024-02-28T06:56:39;101251.88;;;0.70;45.33
63343;BME280;49465;57.664;39.686;2024-02-28T06:59:13;101260.25;;;1.78;43.76
63343;BME280;49465;57.664;39.686;2024-02-28T07:01:50;101259.38;;;0.97;44.98
63343;BME280;49465;57.664;39.686;2024-02-28T07:04:25;101257.81;;;0.81;44.96
63343;BME280;49465;57.664;39.686;2024-02-28T07:07:23;101257.31;;;1.33;44.80
63343;BME280;49465;57.664;39.686;2024-02-28T07:09:57;101268.94;;;0.89;45.27
63343;BME280;49465;57.664;39.686;2024-02-28T07:12:32;101261.97;;;0.96;45.24
63343;BME280;49465;57.664;39.686;2024-02-28T07:15:07;101257.75;;;0.87;45.47
63343;BME280;49465;57.664;39.686;2024-02-28T07:18:01;101267.13;;;0.96;45.46
63343;BME280;49465;57.664;39.686;2024-02-28T07:20:33;101260.25;;;0.96;45.48
63343;BME280;49465;57.664;39.686;2024-02-28T07:23:14;101260.06;;;1.16;45.29
63343;BME280;49465;57.664;39.686;2024-02-28T07:25:46;101257.59;;;1.04;45.72
63343;BME280;49465;57.664;39.686;2024-02-28T07:28:24;101247.91;;;1.96;44.37
63343;BME280;49465;57.664;39.686;2024-02-28T07:31:18;101258.88;;;1.47;44.99
63343;BME280;49465;57.664;39.686;2024-02-28T07:34:01;101260.91;;;1.17;45.52
63343;BME280;49465;57.664;39.686;2024-02-28T07:36:33;101265.38;;;1.01;45.72
63343;BME280;49465;57.664;39.686;2024-02-28T07:39:05;101266.22;;;1.02;45.34
63343;BME280;49465;57.664;39.686;2024-02-28T07:41:34;101261.75;;;1.17;45.90
63343;BME280;49465;57.664;39.686;2024-02-28T07:44:15;101265.91;;;1.35;46.18
63343;BME280;49465;57.664;39.686;2024-02-28T07:46:50;101266.06;;;1.17;45.87
63343;BME280;49465;57.664;39.686;2024-02-28T07:49:22;101265.06;;;1.33;45.95
63343;BME280;49465;57.664;39.686;2024-02-28T07:51:57;101254.69;;;1.35;46.30
63343;BME280;49465;57.664;39.686;2024-02-28T07:54:35;101251.00;;;1.56;46.25
63343;BME280;49465;57.664;39.686;2024-02-28T07:57:11;101256.19;;;1.54;45.95
63343;BME280;49465;57.664;39.686;2024-02-28T07:59:47;101257.84;;;1.62;46.16
63343;BME280;49465;57.664;39.686;2024-02-28T08:02:22;101255.28;;;1.60;46.10
63343;BME280;49465;57.664;39.686;2024-02-28T08:05:06;101254.09;;;1.84;45.72
63343;BME280;49465;57.664;39.686;2024-02-28T08:07:44;101256.84;;;1.72;45.85
63343;BME280;49465;57.664;39.686;2024-02-28T08:10:16;101255.16;;;1.69;45.83
63343;BME280;49465;57.664;39.686;2024-02-28T08:12:48;101261.13;;;1.74;45.96
63343;BME280;49465;57.664;39.686;2024-02-28T08:15:20;101261.00;;;1.85;45.99
63343;BME280;49465;57.664;39.686;2024-02-28T08:17:52;101249.00;;;1.78;46.23
63343;BME280;49465;57.664;39.686;2024-02-28T08:20:25;101253.22;;;1.87;46.09
63343;BME280;49465;57.664;39.686;2024-02-28T08:22:54;101258.44;;;1.84;45.89
63343;BME280;49465;57.664;39.686;2024-02-28T08:25:27;101249.53;;;2.05;46.11
63343;BME280;49465;57.664;39.686;2024-02-28T08:27:59;101240.13;;;1.97;46.25
63343;BME280;49465;57.664;39.686;2024-02-28T08:30:31;101242.50;;;2.14;46.12
63343;BME280;49465;57.664;39.686;2024-02-28T08:33:06;101254.53;;;2.18;46.14
63343;BME280;49465;57.664;39.686;2024-02-28T08:35:37;101257.00;;;2.25;46.31
63343;BME280;49465;57.664;39.686;2024-02-28T08:38:09;101249.22;;;2.26;45.75
63343;BME280;49465;57.664;39.686;2024-02-28T08:40:41;101260.22;;;2.42;46.41
63343;BME280;49465;57.664;39.686;2024-02-28T08:43:18;101257.47;;;2.53;45.75
63343;BME280;49465;57.664;39.686;2024-02-28T08:45:53;101262.47;;;2.62;46.31
63343;BME280;49465;57.664;39.686;2024-02-28T08:48:24;101254.69;;;2.64;46.00
63343;BME280;49465;57.664;39.686;2024-02-28T08:50:59;101256.44;;;2.63;46.29
63343;BME280;49465;57.664;39.686;2024-02-28T08:53:40;101252.94;;;2.64;46.06
63343;BME280;49465;57.664;39.686;2024-02-28T08:56:10;101246.84;;;2.68;46.59
63343;BME280;49465;57.664;39.686;2024-02-28T08:58:39;101253.47;;;2.86;46.17
63343;BME280;49465;57.664;39.686;2024-02-28T09:01:14;101248.13;;;2.94;46.42
63343;BME280;49465;57.664;39.686;2024-02-28T09:03:52;101242.78;;;3.03;45.84
63343;BME280;49465;57.664;39.686;2024-02-28T09:06:23;101236.91;;;2.95;46.39
63343;BME280;49465;57.664;39.686;2024-02-28T09:08:58;101244.06;;;3.27;45.51
63343;BME280;49465;57.664;39.686;2024-02-28T09:11:30;101248.50;;;3.24;45.46
63343;BME280;49465;57.664;39.686;2024-02-28T09:14:00;101257.28;;;3.15;45.91
63343;BME280;49465;57.664;39.686;2024-02-28T09:16:37;101243.19;;;3.30;45.98
63343;BME280;49465;57.664;39.686;2024-02-28T09:19:10;101253.34;;;3.39;45.71
63343;BME280;49465;57.664;39.686;2024-02-28T09:21:44;101252.53;;;3.37;45.91
63343;BME280;49465;57.664;39.686;2024-02-28T09:24:16;101261.09;;;3.41;45.82
63343;BME280;49465;57.664;39.686;2024-02-28T09:26:42;101251.00;;;3.27;45.82
63343;BME280;49465;57.664;39.686;2024-02-28T09:29:22;101259.97;;;3.55;46.41
63343;BME280;49465;57.664;39.686;2024-02-28T09:31:54;101263.81;;;3.34;46.73
63343;BME280;49465;57.664;39.686;2024-02-28T09:34:20;101258.53;;;3.41;45.72
63343;BME280;49465;57.664;39.686;2024-02-28T09:36:53;101254.16;;;3.43;45.99
63343;BME280;49465;57.664;39.686;2024-02-28T09:39:28;101258.25;;;3.54;46.45
63343;BME280;49465;57.664;39.686;2024-02-28T09:42:03;101257.25;;;3.62;46.33
63343;BME280;49465;57.664;39.686;2024-02-28T09:44:37;101259.69;;;3.69;45.31
63343;BME280;49465;57.664;39.686;2024-02-28T09:47:08;101259.41;;;4.60;45.09
63343;BME280;49465;57.664;39.686;2024-02-28T09:49:43;101260.19;;;3.88;45.95
63343;BME280;49465;57.664;39.686;2024-02-28T09:52:16;101257.78;;;3.78;45.22
63343;BME280;49465;57.664;39.686;2024-02-28T09:54:54;101265.56;;;3.78;45.59
63343;BME280;49465;57.664;39.686;2024-02-28T09:57:26;101264.72;;;3.77;45.73
63343;BME280;49465;57.664;39.686;2024-02-28T10:00:03;101259.44;;;3.80;45.81
63343;BME280;49465;57.664;39.686;2024-02-28T10:02:38;101263.50;;;3.93;45.76
63343;BME280;49465;57.664;39.686;2024-02-28T10:05:14;101256.75;;;3.86;45.60
63343;BME280;49465;57.664;39.686;2024-02-28T10:07:51;101267.66;;;4.02;46.47
63343;BME280;49465;57.664;39.686;2024-02-28T10:10:26;101265.53;;;3.79;46.14
63343;BME280;49465;57.664;39.686;2024-02-28T10:13:05;101267.56;;;4.05;46.10
63343;BME280;49465;57.664;39.686;2024-02-28T10:15:39;101268.72;;;3.92;46.48
63343;BME280;49465;57.664;39.686;2024-02-28T10:18:16;101269.69;;;3.88;46.56
63343;BME280;49465;57.664;39.686;2024-02-28T10:20:48;101267.16;;;3.85;46.04
63343;BME280;49465;57.664;39.686;2024-02-28T10:23:17;101260.13;;;3.90;45.78
63343;BME280;49465;57.664;39.686;2024-02-28T10:25:57;101267.59;;;4.04;45.45
63343;BME280;49465;57.664;39.686;2024-02-28T10:28:29;101251.44;;;3.92;46.46
63343;BME280;49465;57.664;39.686;2024-02-28T10:31:01;101255.53;;;4.03;46.30
63343;BME280;49465;57.664;39.686;2024-02-28T10:33:34;101257.78;;;3.78;46.93
63343;BME280;49465;57.664;39.686;2024-02-28T10:36:06;101263.28;;;4.04;46.21
63343;BME280;49465;57.664;39.686;2024-02-28T10:38:35;101257.34;;;3.97;45.79
63343;BME280;49465;57.664;39.686;2024-02-28T10:41:06;101267.41;;;4.13;45.72
63343;BME280;49465;57.664;39.686;2024-02-28T10:43:45;101271.66;;;4.17;45.81
63343;BME280;49465;57.664;39.686;2024-02-28T10:46:25;101269.00;;;4.20;46.89
63343;BME280;49465;57.664;39.686;2024-02-28T10:48:59;101271.59;;;4.20;46.00
63343;BME280;49465;57.664;39.686;2024-02-28T10:51:33;101265.78;;;4.09;46.30
63343;BME280;49465;57.664;39.686;2024-02-28T10:54:08;101273.78;;;4.37;45.92
63343;BME280;49465;57.664;39.686;2024-02-28T10:56:44;101273.25;;;4.23;46.46
63343;BME280;49465;57.664;39.686;2024-02-28T10:59:18;101275.03;;;4.21;46.23
63343;BME280;49465;57.664;39.686;2024-02-28T11:01:52;101273.66;;;4.06;47.49
63343;BME280;49465;57.664;39.686;2024-02-28T11:04:21;101278.59;;;4.16;46.45
63343;BME280;49465;57.664;39.686;2024-02-28T11:06:57;101272.06;;;4.38;46.91
63343;BME280;49465;57.664;39.686;2024-02-28T11:09:32;101272.13;;;4.34;46.74
63343;BME280;49465;57.664;39.686;2024-02-28T11:12:12;101264.25;;;4.39;46.40
63343;BME280;49465;57.664;39.686;2024-02-28T11:15:03;101266.38;;;4.59;46.29
63343;BME280;49465;57.664;39.686;2024-02-28T11:17:33;101265.28;;;4.32;47.00
63343;BME280;49465;57.664;39.686;2024-02-28T11:20:00;101259.22;;;4.31;46.79
63343;BME280;49465;57.664;39.686;2024-02-28T11:22:45;101269.03;;;4.56;46.11
63343;BME280;49465;57.664;39.686;2024-02-28T11:25:14;101259.13;;;4.34;46.17
63343;BME280;49465;57.664;39.686;2024-02-28T11:27:48;101259.25;;;4.67;46.28
63343;BME280;49465;57.664;39.686;2024-02-28T11:30:15;101248.66;;;4.39;46.21
63343;BME280;49465;57.664;39.686;2024-02-28T11:32:47;101245.94;;;4.44;46.28
63343;BME280;49465;57.664;39.686;2024-02-28T11:35:19;101243.81;;;4.61;46.68
63343;BME280;49465;57.664;39.686;2024-02-28T11:37:49;101239.81;;;4.46;46.34
63343;BME280;49465;57.664;39.686;2024-02-28T11:40:27;101235.88;;;4.66;46.74
63343;BME280;49465;57.664;39.686;2024-02-28T11:43:02;101247.91;;;4.70;46.43
63343;BME280;49465;57.664;39.686;2024-02-28T11:45:38;101233.38;;;4.63;47.04
63343;BME280;49465;57.664;39.686;2024-02-28T11:48:06;101239.47;;;4.60;47.27
63343;BME280;49465;57.664;39.686;2024-02-28T11:50:38;101243.16;;;4.87;46.73
63343;BME280;49465;57.664;39.686;2024-02-28T11:53:25;101252.78;;;5.17;47.38
63343;BME280;49465;57.664;39.686;2024-02-28T11:55:57;101239.31;;;4.68;47.00
63343;BME280;49465;57.664;39.686;2024-02-28T11:58:29;101244.25;;;4.79;47.44
63343;BME280;49465;57.664;39.686;2024-02-28T12:01:01;101235.19;;;4.59;47.50
63343;BME280;49465;57.664;39.686;2024-02-28T12:03:45;101247.66;;;5.13;46.75
63343;BME280;49465;57.664;39.686;2024-02-28T12:06:12;101247.75;;;4.76;47.02
63343;BME280;49465;57.664;39.686;2024-02-28T12:08:47;101251.72;;;4.91;47.50
63343;BME280;49465;57.664;39.686;2024-02-28T12:11:25;101251.06;;;4.83;47.55
63343;BME280;49465;57.664;39.686;2024-02-28T12:13:58;101247.97;;;5.01;47.35
63343;BME280;49465;57.664;39.686;2024-02-28T12:16:33;101242.75;;;5.03;47.57
63343;BME280;49465;57.664;39.686;2024-02-28T12:19:06;101240.16;;;5.03;47.17
63343;BME280;49465;57.664;39.686;2024-02-28T12:21:33;101231.78;;;4.91;47.91
63343;BME280;49465;57.664;39.686;2024-02-28T12:24:04;101232.72;;;4.89;47.76
63343;BME280;49465;57.664;39.686;2024-02-28T12:26:35;101229.28;;;4.88;47.83
63343;BME280;49465;57.664;39.686;2024-02-28T12:29:19;101238.69;;;4.92;47.95
63343;BME280;49465;57.664;39.686;2024-02-28T12:32:07;101234.41;;;4.90;47.53
63343;BME280;49465;57.664;39.686;2024-02-28T12:34:36;101235.53;;;6.06;45.88
63343;BME280;49465;57.664;39.686;2024-02-28T12:37:06;101240.16;;;5.03;47.76
63343;BME280;49465;57.664;39.686;2024-02-28T12:39:45;101239.72;;;5.20;47.67
63343;BME280;49465;57.664;39.686;2024-02-28T12:42:16;101239.41;;;4.98;47.43
63343;BME280;49465;57.664;39.686;2024-02-28T12:44:45;101238.59;;;4.95;47.52
63343;BME280;49465;57.664;39.686;2024-02-28T12:47:15;101239.53;;;4.93;47.44
63343;BME280;49465;57.664;39.686;2024-02-28T12:49:42;101241.31;;;4.91;47.51
63343;BME280;49465;57.664;39.686;2024-02-28T12:52:19;101239.75;;;5.18;47.48
63343;BME280;49465;57.664;39.686;2024-02-28T12:55:07;101247.56;;;5.49;47.63
63343;BME280;49465;57.664;39.686;2024-02-28T12:57:42;101242.97;;;5.28;48.14
63343;BME280;49465;57.664;39.686;2024-02-28T13:00:17;101242.94;;;4.95;47.81
63343;BME280;49465;57.664;39.686;2024-02-28T13:02:48;101236.88;;;4.96;48.68
63343;BME280;49465;57.664;39.686;2024-02-28T13:05:26;101243.50;;;5.08;49.55
63343;BME280;49465;57.664;39.686;2024-02-28T13:07:59;101240.84;;;5.09;48.84
63343;BME280;49465;57.664;39.686;2024-02-28T13:10:30;101248.56;;;5.12;49.50
63343;BME280;49465;57.664;39.686;2024-02-28T13:13:17;101254.84;;;5.37;49.00
63343;BME280;49465;57.664;39.686;2024-02-28T13:15:55;101244.84;;;5.21;49.25
63343;BME280;49465;57.664;39.686;2024-02-28T13:18:24;101251.38;;;5.05;49.07
63343;BME280;49465;57.664;39.686;2024-02-28T13:20:54;101242.59;;;5.09;49.69
63343;BME280;49465;57.664;39.686;2024-02-28T13:23:21;101246.34;;;4.97;49.52